Coastal Trader — WSL8560 — position and weather

sailwx.info

Track history (hours):
 
Tides and Currents Weather Stations Pressure Air Temp Water Temp Dewpoint Dewpoint Depression Visibility Wind Speed Wind Dir Waves Ship Positions

Coastal Trader

Owner: COASTAL TRANSPORTATION INC, SEATTLE, WA. More information available from US FCC via Universal Licensing System and Coast Guard Vessel Documentation Center.

Last reported at 2018-Feb-15 18:00 UTC. Time now 2018-Feb-24 23:57 UTC.
Position N 57°36' W 154°36'.
Warning: this ship's position is 9 days out of date.

Type: Cargo ship. MMSI: 368682000.

Wind from 090 at 5 knots

Barometer 1022.0 mb
Air temperature 2.2 ° C
Visibility: greater than 5.4 NM

Date/timePositionNaut miles runAvg speedWind from/ knotsBaromVisibWave heightAir tempDewpointWater temp
2018-Feb-15 18:00N 57°36' W 154°36'26410.5 090 / 51022.0 5.4 2.2
2018-Feb-14 17:00N 58°36' W 146°30'394 9.4 270 / 181024.0 2.2 6.1
2018-Feb-12 23:00N 56°54' W 134°36'192 9.1 160 / 101019.5 5.4 5.6
2018-Feb-12 01:58N 54°20' W 131°12'511.7
2018-Feb-12 01:30N 54°15' W 131°09'611.8
2018-Feb-12 01:00N 54°10' W 131°05'611.8
2018-Feb-12 00:30N 54°04' W 131°02'611.6
2018-Feb-12 00:00N 53°59' W 130°59'611.2
2018-Feb-11 23:30N 53°54' W 130°54'611.6
2018-Feb-11 23:00N 53°50' W 130°47'612.0
2018-Feb-11 22:30N 53°46' W 130°40'611.8
2018-Feb-11 22:00N 53°42' W 130°33'1012.0
2018-Feb-11 21:09N 53°36' W 130°18'612.1
2018-Feb-11 20:40N 53°33' W 130°10'212.2
2018-Feb-11 20:29N 53°32' W 130°07'10512.0
2018-Feb-11 11:44N 52°01' W 128°39'311.3
2018-Feb-11 11:30N 51°59' W 128°38'611.7
2018-Feb-11 11:00N 51°53' W 128°36'612.1
2018-Feb-11 10:30N 51°47' W 128°33'611.8
2018-Feb-11 10:00N 51°42' W 128°30'611.6
2018-Feb-11 09:30N 51°36' W 128°27'612.4
2018-Feb-11 09:00N 51°30' W 128°24'612.4
2018-Feb-11 08:30N 51°24' W 128°22'612.0
2018-Feb-11 08:00N 51°18' W 128°19'612.2
2018-Feb-11 07:30N 51°13' W 128°14'612.8
2018-Feb-11 07:00N 51°09' W 128°06'912.2
2018-Feb-11 06:18N 51°03' W 127°56'412.1
2018-Feb-11 06:00N 51°01' W 127°51'611.8
2018-Feb-11 05:30N 50°58' W 127°44'612.1
2018-Feb-11 05:00N 50°54' W 127°36'611.6
2018-Feb-11 04:30N 50°51' W 127°29'612.1
2018-Feb-11 04:00N 50°48' W 127°20'712.1
2018-Feb-11 03:28N 50°46' W 127°10'612.1
2018-Feb-11 02:59N 50°43' W 127°02'612.0
2018-Feb-11 02:29N 50°41' W 126°53'712.0
2018-Feb-11 01:57N 50°37' W 126°45'613.0
2018-Feb-11 01:29N 50°32' W 126°40'712.8
2018-Feb-11 00:58N 50°30' W 126°30'3813.0
2018-Feb-10 22:01N 50°21' W 125°32'611.3
2018-Feb-10 21:30N 50°18' W 125°25'612.3
2018-Feb-10 21:00N 50°12' W 125°22'510.2
2018-Feb-10 20:31N 50°07' W 125°19'510.8
2018-Feb-10 20:00N 50°03' W 125°14'510.0
2018-Feb-10 19:29N 49°58' W 125°10'611.9
2018-Feb-10 19:00N 49°55' W 125°03'612.0
2018-Feb-10 18:30N 49°51' W 124°55'611.8
2018-Feb-10 18:00N 49°47' W 124°49'611.7
2018-Feb-10 17:29N 49°43' W 124°42'612.0
2018-Feb-10 17:00N 49°40' W 124°35'712.2
2018-Feb-10 16:26N 49°36' W 124°26'1512.2
2018-Feb-10 15:10N 49°28' W 124°06'311.5
2018-Feb-10 14:54N 49°26' W 124°02'1411.4
2018-Feb-10 13:42N 49°17' W 123°45'310.9
2018-Feb-10 13:24N 49°15' W 123°41'511.7
2018-Feb-10 12:59N 49°12' W 123°36'612.1
2018-Feb-10 12:30N 49°09' W 123°29'612.2
2018-Feb-10 11:59N 49°04' W 123°22'612.2
2018-Feb-10 11:30N 49°00' W 123°15'612.0
2018-Feb-10 11:00N 48°56' W 123°08'612.6
2018-Feb-10 10:30N 48°53' W 123°01'612.8
2018-Feb-10 10:00N 48°48' W 122°53'612.2
2018-Feb-10 09:30N 48°45' W 122°46'611.9
2018-Feb-10 09:00N 48°39' W 122°43'612.7
2018-Feb-10 08:30N 48°33' W 122°45'713.0
2018-Feb-10 08:00N 48°26' W 122°44'611.6
2018-Feb-10 07:30N 48°21' W 122°45'20 9.2
2018-Feb-10 05:22N 48°02' W 122°37'410.2
2018-Feb-10 05:00N 47°58' W 122°35'510.8
2018-Feb-10 04:30N 47°55' W 122°29'611.5
2018-Feb-10 04:00N 47°49' W 122°27'611.5
2018-Feb-10 03:30N 47°44' W 122°25'4 7.5
2018-Feb-10 03:00N 47°40' W 122°24'1 1.2
2018-Feb-10 02:30N 47°40' W 122°23'1 1.1
2018-Feb-10 01:59N 47°39' W 122°22'0 0.1
2018-Feb-10 01:29N 47°39' W 122°22'0 0.0
2018-Feb-10 00:56N 47°39' W 122°22'0 0.0
2018-Feb-10 00:29N 47°39' W 122°22'0 0.0
2018-Feb-09 23:59N 47°39' W 122°22'0 0.0
2018-Feb-09 23:29N 47°39' W 122°22'0 0.0
2018-Feb-09 22:59N 47°39' W 122°22'0 0.0
2018-Feb-09 22:44N 47°39' W 122°22'  
Track history (hours):
 
Tides and Currents Weather Stations Pressure Air Temp Water Temp Dewpoint Dewpoint Depression Visibility Wind Speed Wind Dir Waves Ship Positions

Coastal Trader

Owner: COASTAL TRANSPORTATION INC, SEATTLE, WA. More information available from US FCC via Universal Licensing System and Coast Guard Vessel Documentation Center.

Last reported at 2018-Feb-15 18:00 UTC. Time now 2018-Feb-24 23:57 UTC.
Position N 57°36' W 154°36'.
Warning: this ship's position is 9 days out of date.

Type: Cargo ship. MMSI: 368682000.

Wind from 090 at 5 knots

Barometer 1022.0 mb
Air temperature 2.2 ° C
Visibility: greater than 5.4 NM

Date/timePositionNaut miles runAvg speedWind from/ knotsBaromVisibWave heightAir tempDewpointWater temp
2018-Feb-15 18:00N 57°36' W 154°36'26410.5 090 / 51022.0 5.4 2.2
2018-Feb-14 17:00N 58°36' W 146°30'394 9.4 270 / 181024.0 2.2 6.1
2018-Feb-12 23:00N 56°54' W 134°36'192 9.1 160 / 101019.5 5.4 5.6
2018-Feb-12 01:58N 54°20' W 131°12'511.7
2018-Feb-12 01:30N 54°15' W 131°09'611.8
2018-Feb-12 01:00N 54°10' W 131°05'611.8
2018-Feb-12 00:30N 54°04' W 131°02'611.6
2018-Feb-12 00:00N 53°59' W 130°59'611.2
2018-Feb-11 23:30N 53°54' W 130°54'611.6
2018-Feb-11 23:00N 53°50' W 130°47'612.0
2018-Feb-11 22:30N 53°46' W 130°40'611.8
2018-Feb-11 22:00N 53°42' W 130°33'1012.0
2018-Feb-11 21:09N 53°36' W 130°18'612.1
2018-Feb-11 20:40N 53°33' W 130°10'212.2
2018-Feb-11 20:29N 53°32' W 130°07'10512.0
2018-Feb-11 11:44N 52°01' W 128°39'311.3
2018-Feb-11 11:30N 51°59' W 128°38'611.7
2018-Feb-11 11:00N 51°53' W 128°36'612.1
2018-Feb-11 10:30N 51°47' W 128°33'611.8
2018-Feb-11 10:00N 51°42' W 128°30'611.6
2018-Feb-11 09:30N 51°36' W 128°27'612.4
2018-Feb-11 09:00N 51°30' W 128°24'612.4
2018-Feb-11 08:30N 51°24' W 128°22'612.0
2018-Feb-11 08:00N 51°18' W 128°19'612.2
2018-Feb-11 07:30N 51°13' W 128°14'612.8
2018-Feb-11 07:00N 51°09' W 128°06'912.2
2018-Feb-11 06:18N 51°03' W 127°56'412.1
2018-Feb-11 06:00N 51°01' W 127°51'611.8
2018-Feb-11 05:30N 50°58' W 127°44'612.1
2018-Feb-11 05:00N 50°54' W 127°36'611.6
2018-Feb-11 04:30N 50°51' W 127°29'612.1
2018-Feb-11 04:00N 50°48' W 127°20'712.1
2018-Feb-11 03:28N 50°46' W 127°10'612.1
2018-Feb-11 02:59N 50°43' W 127°02'612.0
2018-Feb-11 02:29N 50°41' W 126°53'712.0
2018-Feb-11 01:57N 50°37' W 126°45'613.0
2018-Feb-11 01:29N 50°32' W 126°40'712.8
2018-Feb-11 00:58N 50°30' W 126°30'3813.0
2018-Feb-10 22:01N 50°21' W 125°32'611.3
2018-Feb-10 21:30N 50°18' W 125°25'612.3
2018-Feb-10 21:00N 50°12' W 125°22'510.2
2018-Feb-10 20:31N 50°07' W 125°19'510.8
2018-Feb-10 20:00N 50°03' W 125°14'510.0
2018-Feb-10 19:29N 49°58' W 125°10'611.9
2018-Feb-10 19:00N 49°55' W 125°03'612.0
2018-Feb-10 18:30N 49°51' W 124°55'611.8
2018-Feb-10 18:00N 49°47' W 124°49'611.7
2018-Feb-10 17:29N 49°43' W 124°42'612.0
2018-Feb-10 17:00N 49°40' W 124°35'712.2
2018-Feb-10 16:26N 49°36' W 124°26'1512.2
2018-Feb-10 15:10N 49°28' W 124°06'311.5
2018-Feb-10 14:54N 49°26' W 124°02'1411.4
2018-Feb-10 13:42N 49°17' W 123°45'310.9
2018-Feb-10 13:24N 49°15' W 123°41'511.7
2018-Feb-10 12:59N 49°12' W 123°36'612.1
2018-Feb-10 12:30N 49°09' W 123°29'612.2
2018-Feb-10 11:59N 49°04' W 123°22'612.2
2018-Feb-10 11:30N 49°00' W 123°15'612.0
2018-Feb-10 11:00N 48°56' W 123°08'612.6
2018-Feb-10 10:30N 48°53' W 123°01'612.8
2018-Feb-10 10:00N 48°48' W 122°53'612.2
2018-Feb-10 09:30N 48°45' W 122°46'611.9
2018-Feb-10 09:00N 48°39' W 122°43'612.7
2018-Feb-10 08:30N 48°33' W 122°45'713.0
2018-Feb-10 08:00N 48°26' W 122°44'611.6
2018-Feb-10 07:30N 48°21' W 122°45'20 9.2
2018-Feb-10 05:22N 48°02' W 122°37'410.2
2018-Feb-10 05:00N 47°58' W 122°35'510.8
2018-Feb-10 04:30N 47°55' W 122°29'611.5
2018-Feb-10 04:00N 47°49' W 122°27'611.5
2018-Feb-10 03:30N 47°44' W 122°25'4 7.5
2018-Feb-10 03:00N 47°40' W 122°24'1 1.2
2018-Feb-10 02:30N 47°40' W 122°23'1 1.1
2018-Feb-10 01:59N 47°39' W 122°22'0 0.1
2018-Feb-10 01:29N 47°39' W 122°22'0 0.0
2018-Feb-10 00:56N 47°39' W 122°22'0 0.0
2018-Feb-10 00:29N 47°39' W 122°22'0 0.0
2018-Feb-09 23:59N 47°39' W 122°22'0 0.0
2018-Feb-09 23:29N 47°39' W 122°22'0 0.0
2018-Feb-09 22:59N 47°39' W 122°22'0 0.0
2018-Feb-09 22:44N 47°39' W 122°22'  

Dump ship's entire track history